sensor_id;sensor_type;location;lat;lon;timestamp;temperature;humidity
2825;DHT22;1420;51.324;12.344;2023-04-25T00:01:09;7.70;99.90
2825;DHT22;1420;51.324;12.344;2023-04-25T00:03:36;7.60;99.90
2825;DHT22;1420;51.324;12.344;2023-04-25T00:06:04;7.70;99.90
2825;DHT22;1420;51.324;12.344;2023-04-25T00:08:32;7.80;99.90
2825;DHT22;1420;51.324;12.344;2023-04-25T00:11:00;7.70;99.90
2825;DHT22;1420;51.324;12.344;2023-04-25T00:13:27;7.70;99.90
2825;DHT22;1420;51.324;12.344;2023-04-25T00:15:54;7.70;99.90
2825;DHT22;1420;51.324;12.344;2023-04-25T00:18:21;7.60;99.90
2825;DHT22;1420;51.324;12.344;2023-04-25T00:20:49;7.50;99.90
2825;DHT22;1420;51.324;12.344;2023-04-25T00:23:16;7.50;99.90
2825;DHT22;1420;51.324;12.344;2023-04-25T00:25:44;7.60;99.90
2825;DHT22;1420;51.324;12.344;2023-04-25T00:28:11;7.50;99.90
2825;DHT22;1420;51.324;12.344;2023-04-25T00:30:39;7.30;99.90
2825;DHT22;1420;51.324;12.344;2023-04-25T00:33:06;7.30;99.90
2825;DHT22;1420;51.324;12.344;2023-04-25T00:35:33;7.20;99.90
2825;DHT22;1420;51.324;12.344;2023-04-25T00:38:01;7.10;99.90
2825;DHT22;1420;51.324;12.344;2023-04-25T00:40:28;7.10;99.90
2825;DHT22;1420;51.324;12.344;2023-04-25T00:42:56;7.00;99.90
2825;DHT22;1420;51.324;12.344;2023-04-25T00:45:23;6.90;99.90
2825;DHT22;1420;51.324;12.344;2023-04-25T00:47:50;6.90;99.90
2825;DHT22;1420;51.324;12.344;2023-04-25T00:50:17;6.90;99.90
2825;DHT22;1420;51.324;12.344;2023-04-25T00:52:45;6.80;99.90
2825;DHT22;1420;51.324;12.344;2023-04-25T00:55:12;6.90;99.90
2825;DHT22;1420;51.324;12.344;2023-04-25T00:57:39;6.90;99.90
2825;DHT22;1420;51.324;12.344;2023-04-25T01:00:07;6.70;99.90
2825;DHT22;1420;51.324;12.344;2023-04-25T01:02:35;6.70;99.90
2825;DHT22;1420;51.324;12.344;2023-04-25T01:05:02;6.80;99.90
2825;DHT22;1420;51.324;12.344;2023-04-25T01:07:29;6.70;99.90
2825;DHT22;1420;51.324;12.344;2023-04-25T01:09:57;6.60;99.90
2825;DHT22;1420;51.324;12.344;2023-04-25T01:12:24;6.60;99.90
2825;DHT22;1420;51.324;12.344;2023-04-25T01:14:51;6.60;99.90
2825;DHT22;1420;51.324;12.344;2023-04-25T01:17:18;6.50;99.90
2825;DHT22;1420;51.324;12.344;2023-04-25T01:19:45;6.50;99.90
2825;DHT22;1420;51.324;12.344;2023-04-25T01:22:13;6.50;99.90
2825;DHT22;1420;51.324;12.344;2023-04-25T01:24:40;6.50;99.90
2825;DHT22;1420;51.324;12.344;2023-04-25T01:27:07;6.40;99.90
2825;DHT22;1420;51.324;12.344;2023-04-25T01:29:35;6.40;99.90
2825;DHT22;1420;51.324;12.344;2023-04-25T01:32:03;6.30;99.90
2825;DHT22;1420;51.324;12.344;2023-04-25T01:34:30;6.40;99.90
2825;DHT22;1420;51.324;12.344;2023-04-25T01:36:58;6.40;99.90
2825;DHT22;1420;51.324;12.344;2023-04-25T01:39:25;6.30;99.90
2825;DHT22;1420;51.324;12.344;2023-04-25T01:41:53;6.40;99.90
2825;DHT22;1420;51.324;12.344;2023-04-25T01:44:21;6.30;99.90
2825;DHT22;1420;51.324;12.344;2023-04-25T01:46:48;6.20;99.90
2825;DHT22;1420;51.324;12.344;2023-04-25T01:49:15;6.20;99.90
2825;DHT22;1420;51.324;12.344;2023-04-25T01:51:43;6.10;99.90
2825;DHT22;1420;51.324;12.344;2023-04-25T01:54:11;6.20;99.90
2825;DHT22;1420;51.324;12.344;2023-04-25T01:56:39;6.10;99.90
2825;DHT22;1420;51.324;12.344;2023-04-25T01:59:05;6.10;99.90
2825;DHT22;1420;51.324;12.344;2023-04-25T02:01:32;6.10;99.90
2825;DHT22;1420;51.324;12.344;2023-04-25T02:04:00;6.10;99.90
2825;DHT22;1420;51.324;12.344;2023-04-25T02:06:27;6.10;99.90
2825;DHT22;1420;51.324;12.344;2023-04-25T02:08:54;6.20;99.90
2825;DHT22;1420;51.324;12.344;2023-04-25T02:11:21;6.10;99.90
2825;DHT22;1420;51.324;12.344;2023-04-25T02:13:48;6.20;99.90
2825;DHT22;1420;51.324;12.344;2023-04-25T02:16:16;6.20;99.90
2825;DHT22;1420;51.324;12.344;2023-04-25T02:18:43;6.20;99.90
2825;DHT22;1420;51.324;12.344;2023-04-25T02:21:10;6.20;99.90
2825;DHT22;1420;51.324;12.344;2023-04-25T02:23:39;6.10;99.90
2825;DHT22;1420;51.324;12.344;2023-04-25T02:26:06;6.30;99.90
2825;DHT22;1420;51.324;12.344;2023-04-25T02:28:34;6.20;99.90
2825;DHT22;1420;51.324;12.344;2023-04-25T02:31:02;6.20;99.90
2825;DHT22;1420;51.324;12.344;2023-04-25T02:33:30;6.10;99.90
2825;DHT22;1420;51.324;12.344;2023-04-25T02:35:57;6.10;99.90
2825;DHT22;1420;51.324;12.344;2023-04-25T02:38:25;6.10;99.90
2825;DHT22;1420;51.324;12.344;2023-04-25T02:40:53;6.00;99.90
2825;DHT22;1420;51.324;12.344;2023-04-25T02:43:20;5.90;99.90
2825;DHT22;1420;51.324;12.344;2023-04-25T02:45:48;5.80;99.90
2825;DHT22;1420;51.324;12.344;2023-04-25T02:48:16;5.70;99.90
2825;DHT22;1420;51.324;12.344;2023-04-25T02:50:43;5.60;99.90
2825;DHT22;1420;51.324;12.344;2023-04-25T02:53:11;5.70;99.90
2825;DHT22;1420;51.324;12.344;2023-04-25T02:55:39;5.80;99.90
2825;DHT22;1420;51.324;12.344;2023-04-25T02:58:06;5.70;99.90
2825;DHT22;1420;51.324;12.344;2023-04-25T03:00:34;5.70;99.90
2825;DHT22;1420;51.324;12.344;2023-04-25T03:03:02;5.60;99.90
2825;DHT22;1420;51.324;12.344;2023-04-25T03:05:29;5.50;99.90
2825;DHT22;1420;51.324;12.344;2023-04-25T03:07:56;5.60;99.90
2825;DHT22;1420;51.324;12.344;2023-04-25T03:10:23;5.60;99.90
2825;DHT22;1420;51.324;12.344;2023-04-25T03:12:51;5.60;99.90
2825;DHT22;1420;51.324;12.344;2023-04-25T03:15:19;5.50;99.90
2825;DHT22;1420;51.324;12.344;2023-04-25T03:17:47;5.50;99.90
2825;DHT22;1420;51.324;12.344;2023-04-25T03:20:14;5.50;99.90
2825;DHT22;1420;51.324;12.344;2023-04-25T03:22:42;5.50;99.90
2825;DHT22;1420;51.324;12.344;2023-04-25T03:25:10;5.60;99.90
2825;DHT22;1420;51.324;12.344;2023-04-25T03:27:37;5.60;99.90
2825;DHT22;1420;51.324;12.344;2023-04-25T03:30:05;5.70;99.90
2825;DHT22;1420;51.324;12.344;2023-04-25T03:32:33;5.50;99.90
2825;DHT22;1420;51.324;12.344;2023-04-25T03:35:00;5.40;99.90
2825;DHT22;1420;51.324;12.344;2023-04-25T03:37:28;5.60;99.90
2825;DHT22;1420;51.324;12.344;2023-04-25T03:39:56;5.50;99.90
2825;DHT22;1420;51.324;12.344;2023-04-25T03:42:23;5.50;99.90
2825;DHT22;1420;51.324;12.344;2023-04-25T03:44:51;5.50;99.90
2825;DHT22;1420;51.324;12.344;2023-04-25T03:47:17;5.40;99.90
2825;DHT22;1420;51.324;12.344;2023-04-25T03:49:44;5.50;99.90
2825;DHT22;1420;51.324;12.344;2023-04-25T03:52:12;5.50;99.90
2825;DHT22;1420;51.324;12.344;2023-04-25T03:54:40;5.60;99.90
2825;DHT22;1420;51.324;12.344;2023-04-25T03:57:08;5.50;99.90
2825;DHT22;1420;51.324;12.344;2023-04-25T03:59:36;5.60;99.90
2825;DHT22;1420;51.324;12.344;2023-04-25T04:02:03;5.50;99.90
2825;DHT22;1420;51.324;12.344;2023-04-25T04:04:30;5.70;99.90
2825;DHT22;1420;51.324;12.344;2023-04-25T04:06:57;5.60;99.90
2825;DHT22;1420;51.324;12.344;2023-04-25T04:09:25;5.50;99.90
2825;DHT22;1420;51.324;12.344;2023-04-25T04:11:52;5.60;99.90
2825;DHT22;1420;51.324;12.344;2023-04-25T04:14:19;5.60;99.90
2825;DHT22;1420;51.324;12.344;2023-04-25T04:16:46;5.60;99.90
2825;DHT22;1420;51.324;12.344;2023-04-25T04:19:14;5.70;99.90
2825;DHT22;1420;51.324;12.344;2023-04-25T04:21:41;5.60;99.90
2825;DHT22;1420;51.324;12.344;2023-04-25T04:24:08;5.60;99.90
2825;DHT22;1420;51.324;12.344;2023-04-25T04:26:35;5.70;99.90
2825;DHT22;1420;51.324;12.344;2023-04-25T04:29:02;5.80;99.90
2825;DHT22;1420;51.324;12.344;2023-04-25T04:31:30;5.80;99.90
2825;DHT22;1420;51.324;12.344;2023-04-25T04:33:57;5.70;99.90
2825;DHT22;1420;51.324;12.344;2023-04-25T04:36:25;5.90;99.90
2825;DHT22;1420;51.324;12.344;2023-04-25T04:38:52;5.90;99.90
2825;DHT22;1420;51.324;12.344;2023-04-25T04:41:20;5.80;99.90
2825;DHT22;1420;51.324;12.344;2023-04-25T04:43:47;5.80;99.90
2825;DHT22;1420;51.324;12.344;2023-04-25T04:46:15;6.00;99.90
2825;DHT22;1420;51.324;12.344;2023-04-25T04:48:42;6.10;99.90
2825;DHT22;1420;51.324;12.344;2023-04-25T04:51:09;6.20;99.90
2825;DHT22;1420;51.324;12.344;2023-04-25T04:53:36;6.40;99.90
2825;DHT22;1420;51.324;12.344;2023-04-25T04:56:04;6.40;99.90
2825;DHT22;1420;51.324;12.344;2023-04-25T04:58:31;6.50;99.90
2825;DHT22;1420;51.324;12.344;2023-04-25T05:00:59;6.60;99.90
2825;DHT22;1420;51.324;12.344;2023-04-25T05:03:26;6.60;99.90
2825;DHT22;1420;51.324;12.344;2023-04-25T05:05:54;6.60;99.90
2825;DHT22;1420;51.324;12.344;2023-04-25T05:08:21;6.70;99.90
2825;DHT22;1420;51.324;12.344;2023-04-25T05:10:48;6.80;99.90
2825;DHT22;1420;51.324;12.344;2023-04-25T05:13:16;6.70;99.90
2825;DHT22;1420;51.324;12.344;2023-04-25T05:15:43;6.60;99.90
2825;DHT22;1420;51.324;12.344;2023-04-25T05:18:10;6.70;99.90
2825;DHT22;1420;51.324;12.344;2023-04-25T05:20:38;7.10;99.90
2825;DHT22;1420;51.324;12.344;2023-04-25T05:23:06;7.30;99.90
2825;DHT22;1420;51.324;12.344;2023-04-25T05:25:33;7.20;99.90
2825;DHT22;1420;51.324;12.344;2023-04-25T05:28:00;7.30;99.90
2825;DHT22;1420;51.324;12.344;2023-04-25T05:30:27;7.40;99.90
2825;DHT22;1420;51.324;12.344;2023-04-25T05:32:54;7.40;99.90
2825;DHT22;1420;51.324;12.344;2023-04-25T05:35:24;7.30;99.90
2825;DHT22;1420;51.324;12.344;2023-04-25T05:37:52;7.40;99.90
2825;DHT22;1420;51.324;12.344;2023-04-25T05:40:20;7.40;99.90
2825;DHT22;1420;51.324;12.344;2023-04-25T05:42:49;7.80;99.90
2825;DHT22;1420;51.324;12.344;2023-04-25T05:45:19;8.60;99.90
2825;DHT22;1420;51.324;12.344;2023-04-25T05:47:51;9.80;99.90
2825;DHT22;1420;51.324;12.344;2023-04-25T05:50:18;9.70;99.90
2825;DHT22;1420;51.324;12.344;2023-04-25T05:52:45;9.80;99.90
2825;DHT22;1420;51.324;12.344;2023-04-25T05:55:12;10.40;99.90
2825;DHT22;1420;51.324;12.344;2023-04-25T05:57:40;10.20;99.90
2825;DHT22;1420;51.324;12.344;2023-04-25T06:00:08;10.50;99.90
2825;DHT22;1420;51.324;12.344;2023-04-25T06:02:35;10.40;99.90
2825;DHT22;1420;51.324;12.344;2023-04-25T06:05:02;10.80;99.90
2825;DHT22;1420;51.324;12.344;2023-04-25T06:07:30;11.00;99.90
2825;DHT22;1420;51.324;12.344;2023-04-25T06:09:58;10.90;99.90
2825;DHT22;1420;51.324;12.344;2023-04-25T06:12:25;10.80;99.90
2825;DHT22;1420;51.324;12.344;2023-04-25T06:14:53;10.30;99.90
2825;DHT22;1420;51.324;12.344;2023-04-25T06:17:20;10.20;99.90
2825;DHT22;1420;51.324;12.344;2023-04-25T06:19:48;10.90;99.90
2825;DHT22;1420;51.324;12.344;2023-04-25T06:22:16;10.30;99.90
2825;DHT22;1420;51.324;12.344;2023-04-25T06:24:43;10.30;99.90
2825;DHT22;1420;51.324;12.344;2023-04-25T06:27:11;11.30;99.90
2825;DHT22;1420;51.324;12.344;2023-04-25T06:29:38;11.20;99.90
2825;DHT22;1420;51.324;12.344;2023-04-25T06:32:05;11.40;99.90
2825;DHT22;1420;51.324;12.344;2023-04-25T06:34:33;11.10;99.90
2825;DHT22;1420;51.324;12.344;2023-04-25T06:37:00;10.30;99.90
2825;DHT22;1420;51.324;12.344;2023-04-25T06:39:27;9.90;99.90
2825;DHT22;1420;51.324;12.344;2023-04-25T06:41:55;9.70;99.90
2825;DHT22;1420;51.324;12.344;2023-04-25T06:44:23;9.60;99.90
2825;DHT22;1420;51.324;12.344;2023-04-25T06:46:51;9.90;99.90
2825;DHT22;1420;51.324;12.344;2023-04-25T06:49:19;9.90;99.90
2825;DHT22;1420;51.324;12.344;2023-04-25T06:51:46;10.30;99.90
2825;DHT22;1420;51.324;12.344;2023-04-25T06:54:13;10.10;99.90
2825;DHT22;1420;51.324;12.344;2023-04-25T06:56:41;9.90;99.90
2825;DHT22;1420;51.324;12.344;2023-04-25T06:59:09;9.80;99.90
2825;DHT22;1420;51.324;12.344;2023-04-25T07:01:37;9.70;99.90
2825;DHT22;1420;51.324;12.344;2023-04-25T07:04:04;9.70;99.90
2825;DHT22;1420;51.324;12.344;2023-04-25T07:06:31;9.50;99.90
2825;DHT22;1420;51.324;12.344;2023-04-25T07:08:58;9.60;99.90
2825;DHT22;1420;51.324;12.344;2023-04-25T07:11:26;9.70;99.90
2825;DHT22;1420;51.324;12.344;2023-04-25T07:13:54;9.50;99.90
2825;DHT22;1420;51.324;12.344;2023-04-25T07:16:21;9.20;99.90
2825;DHT22;1420;51.324;12.344;2023-04-25T07:18:49;9.20;99.90
2825;DHT22;1420;51.324;12.344;2023-04-25T07:21:16;9.20;99.90
2825;DHT22;1420;51.324;12.344;2023-04-25T07:23:43;9.20;99.90
2825;DHT22;1420;51.324;12.344;2023-04-25T07:26:10;9.10;99.90
2825;DHT22;1420;51.324;12.344;2023-04-25T07:28:38;9.00;99.90
2825;DHT22;1420;51.324;12.344;2023-04-25T07:31:06;9.10;99.90
2825;DHT22;1420;51.324;12.344;2023-04-25T07:33:34;9.10;99.90
2825;DHT22;1420;51.324;12.344;2023-04-25T07:36:01;9.30;99.90
2825;DHT22;1420;51.324;12.344;2023-04-25T07:38:28;9.30;99.90
2825;DHT22;1420;51.324;12.344;2023-04-25T07:40:55;9.10;99.90
2825;DHT22;1420;51.324;12.344;2023-04-25T07:43:23;8.90;99.90
2825;DHT22;1420;51.324;12.344;2023-04-25T07:45:50;8.90;99.90
2825;DHT22;1420;51.324;12.344;2023-04-25T07:48:18;8.80;99.90
2825;DHT22;1420;51.324;12.344;2023-04-25T07:50:46;8.80;99.90
2825;DHT22;1420;51.324;12.344;2023-04-25T07:53:13;8.60;99.90
2825;DHT22;1420;51.324;12.344;2023-04-25T07:55:41;8.60;99.90
2825;DHT22;1420;51.324;12.344;2023-04-25T07:58:08;8.50;99.90
2825;DHT22;1420;51.324;12.344;2023-04-25T08:00:36;8.60;99.90
2825;DHT22;1420;51.324;12.344;2023-04-25T08:03:03;8.50;99.90
2825;DHT22;1420;51.324;12.344;2023-04-25T08:05:30;8.40;99.90
2825;DHT22;1420;51.324;12.344;2023-04-25T08:07:57;8.40;99.90
2825;DHT22;1420;51.324;12.344;2023-04-25T08:10:24;8.40;99.90
2825;DHT22;1420;51.324;12.344;2023-04-25T08:12:52;8.30;99.90
2825;DHT22;1420;51.324;12.344;2023-04-25T08:15:19;8.50;99.90
2825;DHT22;1420;51.324;12.344;2023-04-25T08:17:46;8.50;99.90
2825;DHT22;1420;51.324;12.344;2023-04-25T08:20:14;8.80;99.90
2825;DHT22;1420;51.324;12.344;2023-04-25T08:22:41;8.80;99.90
2825;DHT22;1420;51.324;12.344;2023-04-25T08:25:08;8.80;99.90
2825;DHT22;1420;51.324;12.344;2023-04-25T08:27:36;8.80;99.90
2825;DHT22;1420;51.324;12.344;2023-04-25T08:30:04;8.80;99.90
2825;DHT22;1420;51.324;12.344;2023-04-25T08:32:31;9.00;99.90
2825;DHT22;1420;51.324;12.344;2023-04-25T08:34:59;9.40;99.90
2825;DHT22;1420;51.324;12.344;2023-04-25T08:37:26;9.80;99.90
2825;DHT22;1420;51.324;12.344;2023-04-25T08:39:53;9.70;99.90
2825;DHT22;1420;51.324;12.344;2023-04-25T08:42:20;9.40;99.90
2825;DHT22;1420;51.324;12.344;2023-04-25T08:44:48;9.00;99.90
2825;DHT22;1420;51.324;12.344;2023-04-25T08:47:15;9.20;99.90
2825;DHT22;1420;51.324;12.344;2023-04-25T08:49:44;9.20;99.90
2825;DHT22;1420;51.324;12.344;2023-04-25T08:52:09;9.50;99.90
2825;DHT22;1420;51.324;12.344;2023-04-25T08:54:36;9.50;99.90
2825;DHT22;1420;51.324;12.344;2023-04-25T08:57:03;9.40;99.90
2825;DHT22;1420;51.324;12.344;2023-04-25T08:59:31;9.20;99.90
2825;DHT22;1420;51.324;12.344;2023-04-25T09:01:58;9.50;99.90
2825;DHT22;1420;51.324;12.344;2023-04-25T09:04:25;9.60;99.90
2825;DHT22;1420;51.324;12.344;2023-04-25T09:06:53;9.50;99.90
2825;DHT22;1420;51.324;12.344;2023-04-25T09:09:20;9.50;99.90
2825;DHT22;1420;51.324;12.344;2023-04-25T09:11:48;9.40;99.90
2825;DHT22;1420;51.324;12.344;2023-04-25T09:14:19;9.60;99.90
2825;DHT22;1420;51.324;12.344;2023-04-25T09:17:03;9.70;99.90
2825;DHT22;1420;51.324;12.344;2023-04-25T09:19:31;9.60;99.90
2825;DHT22;1420;51.324;12.344;2023-04-25T09:22:00;9.90;99.90
2825;DHT22;1420;51.324;12.344;2023-04-25T09:24:42;9.80;99.90
2825;DHT22;1420;51.324;12.344;2023-04-25T09:27:12;9.80;99.90
2825;DHT22;1420;51.324;12.344;2023-04-25T09:29:39;9.80;99.90
2825;DHT22;1420;51.324;12.344;2023-04-25T09:32:12;9.80;99.90
2825;DHT22;1420;51.324;12.344;2023-04-25T09:34:40;10.00;99.90
2825;DHT22;1420;51.324;12.344;2023-04-25T09:37:07;9.80;99.90
2825;DHT22;1420;51.324;12.344;2023-04-25T09:39:33;9.40;99.90
2825;DHT22;1420;51.324;12.344;2023-04-25T09:42:02;9.20;99.90
2825;DHT22;1420;51.324;12.344;2023-04-25T09:44:29;9.20;99.90
2825;DHT22;1420;51.324;12.344;2023-04-25T09:46:56;9.10;99.90
2825;DHT22;1420;51.324;12.344;2023-04-25T09:49:24;9.20;99.90
2825;DHT22;1420;51.324;12.344;2023-04-25T09:51:56;9.20;99.90
2825;DHT22;1420;51.324;12.344;2023-04-25T09:54:24;9.30;99.90
2825;DHT22;1420;51.324;12.344;2023-04-25T09:56:52;9.10;99.90
2825;DHT22;1420;51.324;12.344;2023-04-25T09:59:20;9.30;99.90
2825;DHT22;1420;51.324;12.344;2023-04-25T10:01:47;9.30;99.90
2825;DHT22;1420;51.324;12.344;2023-04-25T10:04:16;9.40;99.90
2825;DHT22;1420;51.324;12.344;2023-04-25T10:06:42;9.40;99.90
2825;DHT22;1420;51.324;12.344;2023-04-25T10:09:09;9.50;99.90
2825;DHT22;1420;51.324;12.344;2023-04-25T10:11:37;9.50;99.90
2825;DHT22;1420;51.324;12.344;2023-04-25T10:14:04;9.20;99.90
2825;DHT22;1420;51.324;12.344;2023-04-25T10:16:32;9.40;99.90
2825;DHT22;1420;51.324;12.344;2023-04-25T10:19:00;9.50;99.90
2825;DHT22;1420;51.324;12.344;2023-04-25T10:21:27;9.50;99.90
2825;DHT22;1420;51.324;12.344;2023-04-25T10:23:55;9.40;99.90
2825;DHT22;1420;51.324;12.344;2023-04-25T10:26:22;9.50;99.90
2825;DHT22;1420;51.324;12.344;2023-04-25T10:28:55;9.60;99.90
2825;DHT22;1420;51.324;12.344;2023-04-25T10:31:22;9.90;99.90
2825;DHT22;1420;51.324;12.344;2023-04-25T10:33:50;9.80;99.90
2825;DHT22;1420;51.324;12.344;2023-04-25T10:36:18;9.70;99.90
2825;DHT22;1420;51.324;12.344;2023-04-25T10:38:45;9.90;99.90
2825;DHT22;1420;51.324;12.344;2023-04-25T10:41:13;9.90;99.90
2825;DHT22;1420;51.324;12.344;2023-04-25T10:43:41;9.80;99.90
2825;DHT22;1420;51.324;12.344;2023-04-25T10:46:15;9.90;99.90
2825;DHT22;1420;51.324;12.344;2023-04-25T10:48:46;9.80;99.90
2825;DHT22;1420;51.324;12.344;2023-04-25T10:51:23;9.50;99.90
2825;DHT22;1420;51.324;12.344;2023-04-25T10:54:02;9.70;99.90
2825;DHT22;1420;51.324;12.344;2023-04-25T10:56:29;9.50;99.90
2825;DHT22;1420;51.324;12.344;2023-04-25T11:01:28;9.60;99.90
2825;DHT22;1420;51.324;12.344;2023-04-25T11:03:58;9.50;99.90
2825;DHT22;1420;51.324;12.344;2023-04-25T11:06:44;9.50;99.90
2825;DHT22;1420;51.324;12.344;2023-04-25T11:09:11;9.50;99.90
2825;DHT22;1420;51.324;12.344;2023-04-25T11:11:37;9.40;99.90
2825;DHT22;1420;51.324;12.344;2023-04-25T11:14:06;9.50;99.90
2825;DHT22;1420;51.324;12.344;2023-04-25T11:16:33;9.60;99.90
2825;DHT22;1420;51.324;12.344;2023-04-25T11:19:01;9.60;99.90
2825;DHT22;1420;51.324;12.344;2023-04-25T11:21:28;9.60;99.90
2825;DHT22;1420;51.324;12.344;2023-04-25T11:23:56;9.60;99.90
2825;DHT22;1420;51.324;12.344;2023-04-25T11:26:24;9.50;99.90
2825;DHT22;1420;51.324;12.344;2023-04-25T11:28:50;9.40;99.90
2825;DHT22;1420;51.324;12.344;2023-04-25T11:31:20;9.40;99.90
2825;DHT22;1420;51.324;12.344;2023-04-25T11:33:48;9.30;99.90
2825;DHT22;1420;51.324;12.344;2023-04-25T11:36:15;9.20;99.90
2825;DHT22;1420;51.324;12.344;2023-04-25T11:38:42;9.20;99.90
2825;DHT22;1420;51.324;12.344;2023-04-25T11:41:09;9.20;99.90
2825;DHT22;1420;51.324;12.344;2023-04-25T11:43:36;9.30;99.90
2825;DHT22;1420;51.324;12.344;2023-04-25T11:46:07;9.30;99.90
2825;DHT22;1420;51.324;12.344;2023-04-25T11:48:38;9.30;98.90
2825;DHT22;1420;51.324;12.344;2023-04-25T11:51:05;9.30;98.10
2825;DHT22;1420;51.324;12.344;2023-04-25T11:53:32;9.40;97.50
2825;DHT22;1420;51.324;12.344;2023-04-25T11:55:59;9.30;97.10
2825;DHT22;1420;51.324;12.344;2023-04-25T11:58:27;9.60;97.00
2825;DHT22;1420;51.324;12.344;2023-04-25T12:00:54;9.50;96.40
2825;DHT22;1420;51.324;12.344;2023-04-25T12:03:22;9.60;95.50
2825;DHT22;1420;51.324;12.344;2023-04-25T12:05:49;9.60;95.40
2825;DHT22;1420;51.324;12.344;2023-04-25T12:08:16;9.50;95.10
2825;DHT22;1420;51.324;12.344;2023-04-25T12:10:45;9.50;95.60
2825;DHT22;1420;51.324;12.344;2023-04-25T12:13:19;9.70;94.10
2825;DHT22;1420;51.324;12.344;2023-04-25T12:15:45;9.70;94.60
2825;DHT22;1420;51.324;12.344;2023-04-25T12:18:12;9.90;94.00
2825;DHT22;1420;51.324;12.344;2023-04-25T12:20:41;10.20;92.20
2825;DHT22;1420;51.324;12.344;2023-04-25T12:23:07;10.20;92.20
2825;DHT22;1420;51.324;12.344;2023-04-25T12:25:44;10.30;91.10
2825;DHT22;1420;51.324;12.344;2023-04-25T12:28:19;10.30;91.00
2825;DHT22;1420;51.324;12.344;2023-04-25T12:30:52;10.20;90.30
2825;DHT22;1420;51.324;12.344;2023-04-25T12:33:19;10.00;91.20
2825;DHT22;1420;51.324;12.344;2023-04-25T12:35:46;9.90;91.80
2825;DHT22;1420;51.324;12.344;2023-04-25T12:38:21;9.90;94.00
2825;DHT22;1420;51.324;12.344;2023-04-25T12:40:48;9.80;94.00
2825;DHT22;1420;51.324;12.344;2023-04-25T12:43:15;9.60;94.80
2825;DHT22;1420;51.324;12.344;2023-04-25T12:45:45;9.60;91.60
2825;DHT22;1420;51.324;12.344;2023-04-25T12:48:11;9.50;91.50
2825;DHT22;1420;51.324;12.344;2023-04-25T12:50:38;9.60;92.20
2825;DHT22;1420;51.324;12.344;2023-04-25T12:53:06;9.80;92.60
2825;DHT22;1420;51.324;12.344;2023-04-25T12:55:33;9.70;92.70
2825;DHT22;1420;51.324;12.344;2023-04-25T12:58:00;9.80;93.20
2825;DHT22;1420;51.324;12.344;2023-04-25T13:00:27;9.50;90.40
2825;DHT22;1420;51.324;12.344;2023-04-25T13:02:55;9.30;84.90
2825;DHT22;1420;51.324;12.344;2023-04-25T13:05:23;9.20;82.70
2825;DHT22;1420;51.324;12.344;2023-04-25T13:07:50;9.10;82.70
2825;DHT22;1420;51.324;12.344;2023-04-25T13:10:17;9.30;80.20
2825;DHT22;1420;51.324;12.344;2023-04-25T13:12:45;9.20;78.00
2825;DHT22;1420;51.324;12.344;2023-04-25T13:15:12;9.10;77.90
2825;DHT22;1420;51.324;12.344;2023-04-25T13:17:40;9.30;79.20
2825;DHT22;1420;51.324;12.344;2023-04-25T13:20:08;9.20;79.10
2825;DHT22;1420;51.324;12.344;2023-04-25T13:22:36;9.30;78.40
2825;DHT22;1420;51.324;12.344;2023-04-25T13:25:04;9.40;75.20
2825;DHT22;1420;51.324;12.344;2023-04-25T13:27:31;9.40;74.70
2825;DHT22;1420;51.324;12.344;2023-04-25T13:29:59;9.70;73.00
2825;DHT22;1420;51.324;12.344;2023-04-25T13:32:26;9.90;70.90
2825;DHT22;1420;51.324;12.344;2023-04-25T13:34:53;10.00;67.30
2825;DHT22;1420;51.324;12.344;2023-04-25T13:37:20;10.30;66.20
2825;DHT22;1420;51.324;12.344;2023-04-25T13:39:48;10.40;62.20
2825;DHT22;1420;51.324;12.344;2023-04-25T13:42:15;10.30;62.00
2825;DHT22;1420;51.324;12.344;2023-04-25T13:44:43;10.70;64.70
2825;DHT22;1420;51.324;12.344;2023-04-25T13:47:11;11.20;60.60
2825;DHT22;1420;51.324;12.344;2023-04-25T13:49:38;11.20;60.50
2825;DHT22;1420;51.324;12.344;2023-04-25T13:52:05;11.30;59.00
2825;DHT22;1420;51.324;12.344;2023-04-25T13:54:32;11.50;58.50
2825;DHT22;1420;51.324;12.344;2023-04-25T13:57:00;11.70;59.80
2825;DHT22;1420;51.324;12.344;2023-04-25T13:59:27;11.70;59.70
2825;DHT22;1420;51.324;12.344;2023-04-25T14:01:55;11.40;59.60
2825;DHT22;1420;51.324;12.344;2023-04-25T14:04:23;11.40;59.50
2825;DHT22;1420;51.324;12.344;2023-04-25T14:06:50;11.20;59.70
2825;DHT22;1420;51.324;12.344;2023-04-25T14:09:18;11.00;59.70
2825;DHT22;1420;51.324;12.344;2023-04-25T14:11:45;10.80;57.90
2825;DHT22;1420;51.324;12.344;2023-04-25T14:14:12;10.70;57.90
2825;DHT22;1420;51.324;12.344;2023-04-25T14:16:39;10.70;55.00
2825;DHT22;1420;51.324;12.344;2023-04-25T14:19:06;10.60;53.90
2825;DHT22;1420;51.324;12.344;2023-04-25T14:21:33;10.50;53.40
2825;DHT22;1420;51.324;12.344;2023-04-25T14:24:01;10.40;52.60
2825;DHT22;1420;51.324;12.344;2023-04-25T14:26:29;10.40;52.60
2825;DHT22;1420;51.324;12.344;2023-04-25T14:28:56;10.60;54.30
2825;DHT22;1420;51.324;12.344;2023-04-25T14:31:23;10.40;54.90
2825;DHT22;1420;51.324;12.344;2023-04-25T14:33:50;10.30;54.40
2825;DHT22;1420;51.324;12.344;2023-04-25T14:36:18;10.40;53.10
2825;DHT22;1420;51.324;12.344;2023-04-25T14:38:45;10.50;55.00
2825;DHT22;1420;51.324;12.344;2023-04-25T14:41:12;10.40;55.10
2825;DHT22;1420;51.324;12.344;2023-04-25T14:43:39;10.40;53.90
2825;DHT22;1420;51.324;12.344;2023-04-25T14:46:06;10.40;55.50
2825;DHT22;1420;51.324;12.344;2023-04-25T14:48:34;10.60;53.50
2825;DHT22;1420;51.324;12.344;2023-04-25T14:51:01;10.40;52.70
2825;DHT22;1420;51.324;12.344;2023-04-25T14:53:29;10.60;52.30
2825;DHT22;1420;51.324;12.344;2023-04-25T14:55:56;10.50;52.10
2825;DHT22;1420;51.324;12.344;2023-04-25T14:58:23;10.70;51.20
2825;DHT22;1420;51.324;12.344;2023-04-25T15:00:51;10.90;52.60
2825;DHT22;1420;51.324;12.344;2023-04-25T15:03:18;10.80;51.00
2825;DHT22;1420;51.324;12.344;2023-04-25T15:05:45;10.70;50.80
2825;DHT22;1420;51.324;12.344;2023-04-25T15:08:12;10.40;53.10
2825;DHT22;1420;51.324;12.344;2023-04-25T15:10:39;10.30;54.60
2825;DHT22;1420;51.324;12.344;2023-04-25T15:13:07;10.20;55.20
2825;DHT22;1420;51.324;12.344;2023-04-25T15:15:35;10.10;55.50
2825;DHT22;1420;51.324;12.344;2023-04-25T15:18:03;10.00;56.90
2825;DHT22;1420;51.324;12.344;2023-04-25T15:20:30;10.00;57.00
2825;DHT22;1420;51.324;12.344;2023-04-25T15:22:57;10.10;57.10
2825;DHT22;1420;51.324;12.344;2023-04-25T15:25:24;10.20;55.90
2825;DHT22;1420;51.324;12.344;2023-04-25T15:27:52;10.00;56.50
2825;DHT22;1420;51.324;12.344;2023-04-25T15:30:19;10.10;55.70
2825;DHT22;1420;51.324;12.344;2023-04-25T15:32:46;10.00;54.80
2825;DHT22;1420;51.324;12.344;2023-04-25T15:35:14;10.10;54.60
2825;DHT22;1420;51.324;12.344;2023-04-25T15:37:41;10.10;54.60
2825;DHT22;1420;51.324;12.344;2023-04-25T15:40:10;10.10;54.80
2825;DHT22;1420;51.324;12.344;2023-04-25T15:42:37;10.20;54.90
2825;DHT22;1420;51.324;12.344;2023-04-25T15:45:05;10.10;54.90
2825;DHT22;1420;51.324;12.344;2023-04-25T15:47:31;10.10;55.80
2825;DHT22;1420;51.324;12.344;2023-04-25T15:49:58;10.30;56.00
2825;DHT22;1420;51.324;12.344;2023-04-25T15:52:26;10.30;55.20
2825;DHT22;1420;51.324;12.344;2023-04-25T15:54:53;10.10;55.80
2825;DHT22;1420;51.324;12.344;2023-04-25T15:57:20;10.10;55.70
2825;DHT22;1420;51.324;12.344;2023-04-25T15:59:48;9.80;56.50
2825;DHT22;1420;51.324;12.344;2023-04-25T16:02:16;9.80;56.30